sensor_id;sensor_type;location;lat;lon;timestamp;P1;durP1;ratioP1;P2;durP2;ratioP2
76459;SDS011;65299;46.084;18.762;2022-12-10T00:00:43;44.87;;;18.03;;
76459;SDS011;65299;46.084;18.762;2022-12-10T00:03:44;34.77;;;16.87;;
76459;SDS011;65299;46.084;18.762;2022-12-10T00:06:45;38.00;;;17.55;;
76459;SDS011;65299;46.084;18.762;2022-12-10T00:09:46;45.72;;;17.80;;
76459;SDS011;65299;46.084;18.762;2022-12-10T00:12:46;36.47;;;17.60;;
76459;SDS011;65299;46.084;18.762;2022-12-10T00:15:46;41.73;;;18.27;;
76459;SDS011;65299;46.084;18.762;2022-12-10T00:18:47;42.37;;;17.97;;
76459;SDS011;65299;46.084;18.762;2022-12-10T00:21:49;40.33;;;16.77;;
76459;SDS011;65299;46.084;18.762;2022-12-10T00:24:49;32.43;;;15.33;;
76459;SDS011;65299;46.084;18.762;2022-12-10T00:27:50;31.17;;;13.85;;
76459;SDS011;65299;46.084;18.762;2022-12-10T00:30:50;34.80;;;16.57;;
76459;SDS011;65299;46.084;18.762;2022-12-10T00:33:52;35.50;;;14.93;;
76459;SDS011;65299;46.084;18.762;2022-12-10T00:36:54;31.58;;;13.77;;
76459;SDS011;65299;46.084;18.762;2022-12-10T00:39:54;29.03;;;15.17;;
76459;SDS011;65299;46.084;18.762;2022-12-10T00:42:55;29.03;;;14.10;;
76459;SDS011;65299;46.084;18.762;2022-12-10T00:45:55;27.13;;;13.70;;
76459;SDS011;65299;46.084;18.762;2022-12-10T00:48:57;28.63;;;13.73;;
76459;SDS011;65299;46.084;18.762;2022-12-10T00:51:58;28.88;;;13.13;;
76459;SDS011;65299;46.084;18.762;2022-12-10T00:54:59;23.87;;;12.57;;
76459;SDS011;65299;46.084;18.762;2022-12-10T00:57:59;24.07;;;11.73;;
76459;SDS011;65299;46.084;18.762;2022-12-10T01:04:12;27.10;;;9.68;;
76459;SDS011;65299;46.084;18.762;2022-12-10T01:07:14;23.35;;;9.80;;
76459;SDS011;65299;46.084;18.762;2022-12-10T01:10:15;20.63;;;11.17;;
76459;SDS011;65299;46.084;18.762;2022-12-10T01:13:17;22.15;;;9.55;;
76459;SDS011;65299;46.084;18.762;2022-12-10T01:16:18;22.30;;;11.50;;
76459;SDS011;65299;46.084;18.762;2022-12-10T01:19:20;26.67;;;11.50;;
76459;SDS011;65299;46.084;18.762;2022-12-10T01:22:20;23.70;;;10.37;;
76459;SDS011;65299;46.084;18.762;2022-12-10T01:25:21;21.80;;;11.07;;
76459;SDS011;65299;46.084;18.762;2022-12-10T01:28:21;26.75;;;12.10;;
76459;SDS011;65299;46.084;18.762;2022-12-10T01:31:26;30.50;;;13.23;;
76459;SDS011;65299;46.084;18.762;2022-12-10T01:34:28;21.83;;;10.80;;
76459;SDS011;65299;46.084;18.762;2022-12-10T01:37:28;25.87;;;12.93;;
76459;SDS011;65299;46.084;18.762;2022-12-10T01:40:29;31.20;;;11.90;;
76459;SDS011;65299;46.084;18.762;2022-12-10T01:43:47;22.20;;;11.15;;
76459;SDS011;65299;46.084;18.762;2022-12-10T01:46:57;24.40;;;11.57;;
76459;SDS011;65299;46.084;18.762;2022-12-10T01:50:00;26.07;;;11.03;;
76459;SDS011;65299;46.084;18.762;2022-12-10T01:53:02;22.90;;;11.25;;
76459;SDS011;65299;46.084;18.762;2022-12-10T01:56:02;24.95;;;11.80;;
76459;SDS011;65299;46.084;18.762;2022-12-10T01:59:03;31.70;;;12.82;;
76459;SDS011;65299;46.084;18.762;2022-12-10T02:02:10;30.20;;;13.00;;
76459;SDS011;65299;46.084;18.762;2022-12-10T02:09:10;28.77;;;15.02;;
76459;SDS011;65299;46.084;18.762;2022-12-10T02:15:26;28.38;;;12.68;;
76459;SDS011;65299;46.084;18.762;2022-12-10T02:18:32;23.30;;;13.40;;
76459;SDS011;65299;46.084;18.762;2022-12-10T02:21:36;33.35;;;14.93;;
76459;SDS011;65299;46.084;18.762;2022-12-10T02:24:40;23.90;;;13.13;;
76459;SDS011;65299;46.084;18.762;2022-12-10T02:27:54;22.90;;;12.65;;
76459;SDS011;65299;46.084;18.762;2022-12-10T02:31:17;21.42;;;11.82;;
76459;SDS011;65299;46.084;18.762;2022-12-10T02:34:21;21.23;;;12.13;;
76459;SDS011;65299;46.084;18.762;2022-12-10T02:37:25;23.85;;;12.40;;
76459;SDS011;65299;46.084;18.762;2022-12-10T02:40:27;22.52;;;11.40;;
76459;SDS011;65299;46.084;18.762;2022-12-10T02:43:31;30.02;;;12.30;;
76459;SDS011;65299;46.084;18.762;2022-12-10T02:46:33;27.88;;;13.00;;
76459;SDS011;65299;46.084;18.762;2022-12-10T02:49:37;24.57;;;13.83;;
76459;SDS011;65299;46.084;18.762;2022-12-10T02:52:40;33.38;;;14.55;;
76459;SDS011;65299;46.084;18.762;2022-12-10T03:11:48;23.00;;;11.73;;
76459;SDS011;65299;46.084;18.762;2022-12-10T03:15:00;24.70;;;11.60;;
76459;SDS011;65299;46.084;18.762;2022-12-10T03:18:05;23.98;;;10.27;;
76459;SDS011;65299;46.084;18.762;2022-12-10T03:21:08;22.75;;;10.57;;
76459;SDS011;65299;46.084;18.762;2022-12-10T03:24:09;18.73;;;10.23;;
76459;SDS011;65299;46.084;18.762;2022-12-10T03:27:11;23.20;;;9.87;;
76459;SDS011;65299;46.084;18.762;2022-12-10T03:30:14;21.35;;;10.10;;
76459;SDS011;65299;46.084;18.762;2022-12-10T03:33:14;21.30;;;10.90;;
76459;SDS011;65299;46.084;18.762;2022-12-10T03:36:16;23.17;;;10.73;;
76459;SDS011;65299;46.084;18.762;2022-12-10T03:39:19;23.98;;;11.00;;
76459;SDS011;65299;46.084;18.762;2022-12-10T03:42:20;26.23;;;11.15;;
76459;SDS011;65299;46.084;18.762;2022-12-10T03:45:21;29.73;;;12.20;;
76459;SDS011;65299;46.084;18.762;2022-12-10T03:48:21;24.40;;;11.93;;
76459;SDS011;65299;46.084;18.762;2022-12-10T03:51:21;24.90;;;12.10;;
76459;SDS011;65299;46.084;18.762;2022-12-10T03:54:22;26.00;;;12.70;;
76459;SDS011;65299;46.084;18.762;2022-12-10T03:57:23;31.00;;;12.82;;
76459;SDS011;65299;46.084;18.762;2022-12-10T04:00:24;28.03;;;12.97;;
76459;SDS011;65299;46.084;18.762;2022-12-10T04:03:24;25.38;;;12.50;;
76459;SDS011;65299;46.084;18.762;2022-12-10T04:06:25;29.97;;;12.67;;
76459;SDS011;65299;46.084;18.762;2022-12-10T04:09:26;31.13;;;13.23;;
76459;SDS011;65299;46.084;18.762;2022-12-10T04:12:26;28.50;;;13.13;;
76459;SDS011;65299;46.084;18.762;2022-12-10T04:15:27;31.27;;;12.80;;
76459;SDS011;65299;46.084;18.762;2022-12-10T04:18:45;29.42;;;12.63;;
76459;SDS011;65299;46.084;18.762;2022-12-10T04:21:46;21.53;;;11.50;;
76459;SDS011;65299;46.084;18.762;2022-12-10T04:25:05;21.08;;;11.55;;
76459;SDS011;65299;46.084;18.762;2022-12-10T04:28:25;25.35;;;11.95;;
76459;SDS011;65299;46.084;18.762;2022-12-10T04:31:26;24.87;;;11.90;;
76459;SDS011;65299;46.084;18.762;2022-12-10T04:34:26;28.03;;;11.97;;
76459;SDS011;65299;46.084;18.762;2022-12-10T04:37:27;19.23;;;11.43;;
76459;SDS011;65299;46.084;18.762;2022-12-10T04:40:28;24.75;;;11.40;;
76459;SDS011;65299;46.084;18.762;2022-12-10T04:43:28;24.27;;;12.67;;
76459;SDS011;65299;46.084;18.762;2022-12-10T04:46:29;85.87;;;45.00;;
76459;SDS011;65299;46.084;18.762;2022-12-10T04:49:29;47.43;;;26.17;;
76459;SDS011;65299;46.084;18.762;2022-12-10T04:52:29;35.13;;;18.23;;
76459;SDS011;65299;46.084;18.762;2022-12-10T04:55:30;24.97;;;12.67;;
76459;SDS011;65299;46.084;18.762;2022-12-10T04:58:31;25.33;;;13.10;;
76459;SDS011;65299;46.084;18.762;2022-12-10T05:01:32;17.38;;;9.57;;
76459;SDS011;65299;46.084;18.762;2022-12-10T05:04:33;20.33;;;10.95;;
76459;SDS011;65299;46.084;18.762;2022-12-10T05:07:34;22.57;;;11.23;;
76459;SDS011;65299;46.084;18.762;2022-12-10T05:10:34;21.77;;;12.60;;
76459;SDS011;65299;46.084;18.762;2022-12-10T05:13:35;27.63;;;13.80;;
76459;SDS011;65299;46.084;18.762;2022-12-10T05:16:35;25.40;;;13.37;;
76459;SDS011;65299;46.084;18.762;2022-12-10T05:19:36;24.65;;;11.77;;
76459;SDS011;65299;46.084;18.762;2022-12-10T05:22:36;24.90;;;12.30;;
76459;SDS011;65299;46.084;18.762;2022-12-10T05:26:02;26.65;;;12.32;;
76459;SDS011;65299;46.084;18.762;2022-12-10T05:29:03;26.23;;;14.40;;
76459;SDS011;65299;46.084;18.762;2022-12-10T05:32:03;23.40;;;12.77;;
76459;SDS011;65299;46.084;18.762;2022-12-10T05:35:04;24.83;;;12.57;;
76459;SDS011;65299;46.084;18.762;2022-12-10T05:38:06;30.02;;;12.73;;
76459;SDS011;65299;46.084;18.762;2022-12-10T05:41:09;24.38;;;12.43;;
76459;SDS011;65299;46.084;18.762;2022-12-10T05:44:12;24.35;;;12.98;;
76459;SDS011;65299;46.084;18.762;2022-12-10T05:47:13;24.93;;;12.60;;
76459;SDS011;65299;46.084;18.762;2022-12-10T05:50:13;24.83;;;11.55;;
76459;SDS011;65299;46.084;18.762;2022-12-10T05:53:14;21.53;;;11.37;;
76459;SDS011;65299;46.084;18.762;2022-12-10T05:56:15;18.83;;;9.03;;
76459;SDS011;65299;46.084;18.762;2022-12-10T05:59:18;23.27;;;11.05;;
76459;SDS011;65299;46.084;18.762;2022-12-10T06:02:18;18.80;;;10.00;;
76459;SDS011;65299;46.084;18.762;2022-12-10T06:05:19;21.15;;;9.38;;
76459;SDS011;65299;46.084;18.762;2022-12-10T06:08:20;16.37;;;8.50;;
76459;SDS011;65299;46.084;18.762;2022-12-10T06:11:22;20.17;;;9.48;;
76459;SDS011;65299;46.084;18.762;2022-12-10T06:14:23;16.35;;;8.13;;
76459;SDS011;65299;46.084;18.762;2022-12-10T06:17:24;18.33;;;8.77;;
76459;SDS011;65299;46.084;18.762;2022-12-10T06:20:24;16.33;;;8.70;;
76459;SDS011;65299;46.084;18.762;2022-12-10T06:23:26;17.57;;;9.47;;
76459;SDS011;65299;46.084;18.762;2022-12-10T06:26:26;16.83;;;9.23;;
76459;SDS011;65299;46.084;18.762;2022-12-10T06:29:26;17.87;;;9.57;;
76459;SDS011;65299;46.084;18.762;2022-12-10T06:32:27;18.97;;;10.13;;
76459;SDS011;65299;46.084;18.762;2022-12-10T06:35:27;20.03;;;9.13;;
76459;SDS011;65299;46.084;18.762;2022-12-10T06:38:28;28.37;;;16.07;;
76459;SDS011;65299;46.084;18.762;2022-12-10T06:41:28;34.17;;;18.23;;
76459;SDS011;65299;46.084;18.762;2022-12-10T06:44:28;20.27;;;12.00;;
76459;SDS011;65299;46.084;18.762;2022-12-10T06:47:29;23.97;;;11.97;;
76459;SDS011;65299;46.084;18.762;2022-12-10T06:50:29;18.53;;;11.47;;
76459;SDS011;65299;46.084;18.762;2022-12-10T06:53:30;21.23;;;11.40;;
76459;SDS011;65299;46.084;18.762;2022-12-10T06:56:31;20.83;;;11.03;;
76459;SDS011;65299;46.084;18.762;2022-12-10T06:59:32;17.63;;;9.43;;
76459;SDS011;65299;46.084;18.762;2022-12-10T07:02:32;18.07;;;10.67;;
76459;SDS011;65299;46.084;18.762;2022-12-10T07:05:33;18.33;;;9.93;;
76459;SDS011;65299;46.084;18.762;2022-12-10T07:08:34;20.40;;;11.50;;
76459;SDS011;65299;46.084;18.762;2022-12-10T07:11:35;19.30;;;9.10;;
76459;SDS011;65299;46.084;18.762;2022-12-10T07:14:36;15.43;;;9.33;;
76459;SDS011;65299;46.084;18.762;2022-12-10T07:17:36;12.20;;;7.28;;
76459;SDS011;65299;46.084;18.762;2022-12-10T07:20:37;16.07;;;7.83;;
76459;SDS011;65299;46.084;18.762;2022-12-10T07:23:37;15.30;;;8.50;;
76459;SDS011;65299;46.084;18.762;2022-12-10T07:26:38;16.27;;;9.00;;
76459;SDS011;65299;46.084;18.762;2022-12-10T07:29:43;15.20;;;7.78;;
76459;SDS011;65299;46.084;18.762;2022-12-10T07:32:44;14.32;;;8.57;;
76459;SDS011;65299;46.084;18.762;2022-12-10T07:35:44;15.03;;;8.73;;
76459;SDS011;65299;46.084;18.762;2022-12-10T07:38:45;15.43;;;8.93;;
76459;SDS011;65299;46.084;18.762;2022-12-10T07:41:50;14.10;;;8.40;;
76459;SDS011;65299;46.084;18.762;2022-12-10T07:44:52;18.33;;;8.90;;
76459;SDS011;65299;46.084;18.762;2022-12-10T07:47:52;16.83;;;8.90;;
76459;SDS011;65299;46.084;18.762;2022-12-10T07:50:56;14.93;;;8.77;;
76459;SDS011;65299;46.084;18.762;2022-12-10T07:53:57;16.80;;;9.27;;
76459;SDS011;65299;46.084;18.762;2022-12-10T07:56:58;14.73;;;8.67;;
76459;SDS011;65299;46.084;18.762;2022-12-10T07:59:58;16.98;;;9.00;;
76459;SDS011;65299;46.084;18.762;2022-12-10T08:02:59;14.93;;;8.17;;
76459;SDS011;65299;46.084;18.762;2022-12-10T08:06:07;17.03;;;8.33;;
76459;SDS011;65299;46.084;18.762;2022-12-10T08:09:09;16.95;;;7.65;;
76459;SDS011;65299;46.084;18.762;2022-12-10T08:12:10;14.90;;;8.82;;
76459;SDS011;65299;46.084;18.762;2022-12-10T08:15:10;12.87;;;7.90;;
76459;SDS011;65299;46.084;18.762;2022-12-10T08:18:11;11.50;;;7.23;;
76459;SDS011;65299;46.084;18.762;2022-12-10T08:21:15;13.37;;;6.50;;
76459;SDS011;65299;46.084;18.762;2022-12-10T08:24:17;12.20;;;7.20;;
76459;SDS011;65299;46.084;18.762;2022-12-10T08:27:18;10.30;;;5.87;;
76459;SDS011;65299;46.084;18.762;2022-12-10T08:30:18;13.10;;;7.50;;
76459;SDS011;65299;46.084;18.762;2022-12-10T08:33:18;12.50;;;6.35;;
76459;SDS011;65299;46.084;18.762;2022-12-10T08:36:19;15.00;;;7.73;;
76459;SDS011;65299;46.084;18.762;2022-12-10T08:39:20;15.93;;;8.77;;
76459;SDS011;65299;46.084;18.762;2022-12-10T08:42:20;14.40;;;8.13;;
76459;SDS011;65299;46.084;18.762;2022-12-10T08:45:20;15.37;;;7.93;;
76459;SDS011;65299;46.084;18.762;2022-12-10T08:48:21;12.97;;;7.03;;
76459;SDS011;65299;46.084;18.762;2022-12-10T08:51:23;15.45;;;8.00;;
76459;SDS011;65299;46.084;18.762;2022-12-10T08:54:25;18.15;;;9.38;;
76459;SDS011;65299;46.084;18.762;2022-12-10T08:57:25;18.73;;;8.57;;
76459;SDS011;65299;46.084;18.762;2022-12-10T09:00:25;20.93;;;8.60;;
76459;SDS011;65299;46.084;18.762;2022-12-10T09:03:26;16.92;;;9.25;;
76459;SDS011;65299;46.084;18.762;2022-12-10T09:06:27;16.07;;;8.30;;
76459;SDS011;65299;46.084;18.762;2022-12-10T09:09:28;15.63;;;8.15;;
76459;SDS011;65299;46.084;18.762;2022-12-10T09:12:28;14.43;;;7.47;;
76459;SDS011;65299;46.084;18.762;2022-12-10T09:15:29;16.23;;;8.60;;
76459;SDS011;65299;46.084;18.762;2022-12-10T09:18:29;17.70;;;9.05;;
76459;SDS011;65299;46.084;18.762;2022-12-10T09:21:30;17.30;;;8.50;;
76459;SDS011;65299;46.084;18.762;2022-12-10T09:24:30;17.52;;;8.95;;
76459;SDS011;65299;46.084;18.762;2022-12-10T09:27:31;21.53;;;8.80;;
76459;SDS011;65299;46.084;18.762;2022-12-10T09:30:32;23.95;;;12.18;;
76459;SDS011;65299;46.084;18.762;2022-12-10T09:33:32;25.40;;;11.80;;
76459;SDS011;65299;46.084;18.762;2022-12-10T09:36:34;30.25;;;16.23;;
76459;SDS011;65299;46.084;18.762;2022-12-10T09:39:34;26.90;;;15.23;;
76459;SDS011;65299;46.084;18.762;2022-12-10T09:42:52;24.67;;;12.30;;
76459;SDS011;65299;46.084;18.762;2022-12-10T09:46:13;20.97;;;10.10;;
76459;SDS011;65299;46.084;18.762;2022-12-10T09:53:14;25.55;;;13.05;;
76459;SDS011;65299;46.084;18.762;2022-12-10T09:56:22;15.13;;;7.03;;
76459;SDS011;65299;46.084;18.762;2022-12-10T10:02:33;27.53;;;12.60;;
76459;SDS011;65299;46.084;18.762;2022-12-10T10:05:35;24.75;;;12.95;;
76459;SDS011;65299;46.084;18.762;2022-12-10T10:11:51;31.73;;;12.95;;
76459;SDS011;65299;46.084;18.762;2022-12-10T10:14:52;30.67;;;12.63;;
76459;SDS011;65299;46.084;18.762;2022-12-10T10:17:53;36.10;;;15.67;;
76459;SDS011;65299;46.084;18.762;2022-12-10T10:20:56;29.15;;;12.73;;
76459;SDS011;65299;46.084;18.762;2022-12-10T10:23:57;21.53;;;10.43;;
76459;SDS011;65299;46.084;18.762;2022-12-10T10:26:59;28.67;;;12.63;;
76459;SDS011;65299;46.084;18.762;2022-12-10T10:30:15;25.98;;;12.23;;
76459;SDS011;65299;46.084;18.762;2022-12-10T10:33:18;28.95;;;14.32;;
76459;SDS011;65299;46.084;18.762;2022-12-10T10:36:19;31.50;;;13.47;;
76459;SDS011;65299;46.084;18.762;2022-12-10T10:42:35;30.55;;;14.68;;
76459;SDS011;65299;46.084;18.762;2022-12-10T10:45:39;31.40;;;13.57;;
76459;SDS011;65299;46.084;18.762;2022-12-10T10:48:41;33.47;;;14.55;;
76459;SDS011;65299;46.084;18.762;2022-12-10T10:51:42;29.73;;;13.80;;
76459;SDS011;65299;46.084;18.762;2022-12-10T10:54:45;36.88;;;19.65;;
76459;SDS011;65299;46.084;18.762;2022-12-10T10:57:47;41.77;;;19.17;;
76459;SDS011;65299;46.084;18.762;2022-12-10T11:03:56;39.03;;;15.60;;
76459;SDS011;65299;46.084;18.762;2022-12-10T11:07:00;39.63;;;15.93;;
76459;SDS011;65299;46.084;18.762;2022-12-10T11:10:04;45.25;;;17.95;;
76459;SDS011;65299;46.084;18.762;2022-12-10T11:13:27;34.20;;;15.20;;
76459;SDS011;65299;46.084;18.762;2022-12-10T11:16:29;29.75;;;13.32;;
76459;SDS011;65299;46.084;18.762;2022-12-10T11:19:29;33.50;;;15.03;;
76459;SDS011;65299;46.084;18.762;2022-12-10T11:22:31;33.47;;;13.68;;
76459;SDS011;65299;46.084;18.762;2022-12-10T11:29:02;38.65;;;17.08;;
76459;SDS011;65299;46.084;18.762;2022-12-10T11:39:35;45.13;;;17.73;;
76459;SDS011;65299;46.084;18.762;2022-12-10T11:49:00;39.22;;;16.35;;
76459;SDS011;65299;46.084;18.762;2022-12-10T12:02:08;28.60;;;12.30;;
76459;SDS011;65299;46.084;18.762;2022-12-10T12:09:08;36.63;;;14.73;;
76459;SDS011;65299;46.084;18.762;2022-12-10T12:15:36;38.57;;;15.70;;
76459;SDS011;65299;46.084;18.762;2022-12-10T12:22:06;36.97;;;15.90;;
76459;SDS011;65299;46.084;18.762;2022-12-10T12:25:20;32.95;;;16.83;;
76459;SDS011;65299;46.084;18.762;2022-12-10T12:28:32;36.92;;;14.88;;
76459;SDS011;65299;46.084;18.762;2022-12-10T12:31:38;42.33;;;16.47;;
76459;SDS011;65299;46.084;18.762;2022-12-10T12:41:17;22.65;;;10.93;;
76459;SDS011;65299;46.084;18.762;2022-12-10T12:45:12;31.95;;;14.95;;
76459;SDS011;65299;46.084;18.762;2022-12-10T12:48:09;18.23;;;8.43;;
76459;SDS011;65299;46.084;18.762;2022-12-10T12:51:16;31.70;;;13.68;;
76459;SDS011;65299;46.084;18.762;2022-12-10T12:54:21;29.58;;;12.75;;
76459;SDS011;65299;46.084;18.762;2022-12-10T12:57:33;33.77;;;15.23;;
76459;SDS011;65299;46.084;18.762;2022-12-10T13:00:41;23.65;;;10.57;;
76459;SDS011;65299;46.084;18.762;2022-12-10T13:03:46;24.17;;;9.02;;
76459;SDS011;65299;46.084;18.762;2022-12-10T13:10:28;16.47;;;8.33;;
76459;SDS011;65299;46.084;18.762;2022-12-10T13:13:30;23.88;;;11.20;;
76459;SDS011;65299;46.084;18.762;2022-12-10T13:19:39;15.80;;;7.45;;
76459;SDS011;65299;46.084;18.762;2022-12-10T13:22:41;22.95;;;10.45;;
76459;SDS011;65299;46.084;18.762;2022-12-10T13:25:55;21.40;;;9.60;;
76459;SDS011;65299;46.084;18.762;2022-12-10T13:29:19;17.50;;;8.30;;
76459;SDS011;65299;46.084;18.762;2022-12-10T13:35:44;15.68;;;7.57;;
76459;SDS011;65299;46.084;18.762;2022-12-10T13:45:34;26.75;;;12.40;;
76459;SDS011;65299;46.084;18.762;2022-12-10T13:48:35;17.83;;;9.40;;
76459;SDS011;65299;46.084;18.762;2022-12-10T13:51:44;23.30;;;11.82;;
76459;SDS011;65299;46.084;18.762;2022-12-10T13:58:05;20.25;;;8.38;;
76459;SDS011;65299;46.084;18.762;2022-12-10T14:08:05;26.77;;;12.20;;
76459;SDS011;65299;46.084;18.762;2022-12-10T14:11:11;30.63;;;14.13;;
76459;SDS011;65299;46.084;18.762;2022-12-10T14:14:28;25.55;;;12.30;;
76459;SDS011;65299;46.084;18.762;2022-12-10T14:17:32;26.17;;;12.57;;
76459;SDS011;65299;46.084;18.762;2022-12-10T14:20:37;19.63;;;8.83;;
76459;SDS011;65299;46.084;18.762;2022-12-10T14:23:45;22.48;;;10.15;;
76459;SDS011;65299;46.084;18.762;2022-12-10T14:26:47;29.23;;;12.80;;
76459;SDS011;65299;46.084;18.762;2022-12-10T14:29:48;18.60;;;7.97;;
76459;SDS011;65299;46.084;18.762;2022-12-10T14:32:58;23.17;;;10.10;;
76459;SDS011;65299;46.084;18.762;2022-12-10T14:35:59;28.77;;;13.50;;
76459;SDS011;65299;46.084;18.762;2022-12-10T14:39:00;31.70;;;13.80;;
76459;SDS011;65299;46.084;18.762;2022-12-10T14:42:02;34.65;;;17.75;;
76459;SDS011;65299;46.084;18.762;2022-12-10T14:45:05;29.98;;;14.63;;
76459;SDS011;65299;46.084;18.762;2022-12-10T14:48:09;27.23;;;12.57;;
76459;SDS011;65299;46.084;18.762;2022-12-10T14:51:12;24.50;;;10.30;;
76459;SDS011;65299;46.084;18.762;2022-12-10T14:54:25;30.23;;;12.38;;
76459;SDS011;65299;46.084;18.762;2022-12-10T14:57:29;28.40;;;13.00;;
76459;SDS011;65299;46.084;18.762;2022-12-10T15:00:35;28.17;;;13.73;;
76459;SDS011;65299;46.084;18.762;2022-12-10T15:03:41;32.47;;;14.73;;
76459;SDS011;65299;46.084;18.762;2022-12-10T15:06:46;26.65;;;12.07;;
76459;SDS011;65299;46.084;18.762;2022-12-10T15:09:47;29.08;;;13.75;;
76459;SDS011;65299;46.084;18.762;2022-12-10T15:12:49;27.55;;;13.50;;
76459;SDS011;65299;46.084;18.762;2022-12-10T15:15:52;16.33;;;7.63;;
76459;SDS011;65299;46.084;18.762;2022-12-10T15:18:53;23.58;;;10.95;;
76459;SDS011;65299;46.084;18.762;2022-12-10T15:21:59;22.67;;;9.88;;
76459;SDS011;65299;46.084;18.762;2022-12-10T15:25:22;24.63;;;11.10;;
76459;SDS011;65299;46.084;18.762;2022-12-10T15:28:29;24.88;;;12.98;;
76459;SDS011;65299;46.084;18.762;2022-12-10T15:31:37;26.23;;;12.97;;
76459;SDS011;65299;46.084;18.762;2022-12-10T15:34:39;29.40;;;14.85;;
76459;SDS011;65299;46.084;18.762;2022-12-10T15:37:42;21.38;;;10.07;;
76459;SDS011;65299;46.084;18.762;2022-12-10T15:40:45;22.52;;;11.50;;
76459;SDS011;65299;46.084;18.762;2022-12-10T15:43:57;15.57;;;7.73;;
76459;SDS011;65299;46.084;18.762;2022-12-10T15:50:20;29.25;;;14.85;;
76459;SDS011;65299;46.084;18.762;2022-12-10T15:53:28;30.00;;;14.40;;
76459;SDS011;65299;46.084;18.762;2022-12-10T15:56:35;25.45;;;12.27;;
76459;SDS011;65299;46.084;18.762;2022-12-10T15:59:35;31.35;;;14.57;;
76459;SDS011;65299;46.084;18.762;2022-12-10T16:06:02;22.92;;;12.13;;
76459;SDS011;65299;46.084;18.762;2022-12-10T16:09:02;22.67;;;10.97;;
76459;SDS011;65299;46.084;18.762;2022-12-10T16:12:03;26.83;;;12.40;;
76459;SDS011;65299;46.084;18.762;2022-12-10T16:15:04;22.88;;;10.77;;
76459;SDS011;65299;46.084;18.762;2022-12-10T16:18:07;22.40;;;11.07;;
76459;SDS011;65299;46.084;18.762;2022-12-10T16:21:09;23.83;;;11.60;;
76459;SDS011;65299;46.084;18.762;2022-12-10T16:24:09;10.95;;;5.63;;
76459;SDS011;65299;46.084;18.762;2022-12-10T16:27:13;23.37;;;10.03;;
76459;SDS011;65299;46.084;18.762;2022-12-10T16:30:25;29.85;;;13.18;;
76459;SDS011;65299;46.084;18.762;2022-12-10T16:33:31;26.95;;;11.55;;
76459;SDS011;65299;46.084;18.762;2022-12-10T16:36:32;22.13;;;10.50;;
76459;SDS011;65299;46.084;18.762;2022-12-10T16:39:32;25.17;;;12.20;;
76459;SDS011;65299;46.084;18.762;2022-12-10T16:42:33;25.13;;;11.02;;
76459;SDS011;65299;46.084;18.762;2022-12-10T16:45:35;17.97;;;9.30;;
76459;SDS011;65299;46.084;18.762;2022-12-10T16:48:37;27.63;;;13.63;;
76459;SDS011;65299;46.084;18.762;2022-12-10T16:51:38;25.43;;;11.60;;
76459;SDS011;65299;46.084;18.762;2022-12-10T16:54:39;19.70;;;9.30;;
76459;SDS011;65299;46.084;18.762;2022-12-10T16:57:39;24.27;;;12.00;;
76459;SDS011;65299;46.084;18.762;2022-12-10T17:00:43;27.08;;;12.40;;
76459;SDS011;65299;46.084;18.762;2022-12-10T17:03:48;30.95;;;14.00;;
76459;SDS011;65299;46.084;18.762;2022-12-10T17:06:49;30.25;;;14.10;;
76459;SDS011;65299;46.084;18.762;2022-12-10T17:09:50;30.73;;;14.13;;
76459;SDS011;65299;46.084;18.762;2022-12-10T17:12:50;30.10;;;15.40;;
76459;SDS011;65299;46.084;18.762;2022-12-10T17:15:51;28.23;;;13.70;;
76459;SDS011;65299;46.084;18.762;2022-12-10T17:18:52;23.83;;;11.87;;
76459;SDS011;65299;46.084;18.762;2022-12-10T17:21:52;36.83;;;19.27;;
76459;SDS011;65299;46.084;18.762;2022-12-10T17:24:53;32.60;;;17.57;;
76459;SDS011;65299;46.084;18.762;2022-12-10T17:27:53;35.27;;;19.63;;
76459;SDS011;65299;46.084;18.762;2022-12-10T17:30:54;44.55;;;20.80;;
76459;SDS011;65299;46.084;18.762;2022-12-10T17:33:55;32.77;;;16.73;;
76459;SDS011;65299;46.084;18.762;2022-12-10T17:36:55;47.30;;;25.15;;
76459;SDS011;65299;46.084;18.762;2022-12-10T17:39:56;40.80;;;19.27;;
76459;SDS011;65299;46.084;18.762;2022-12-10T17:42:56;39.90;;;19.63;;
76459;SDS011;65299;46.084;18.762;2022-12-10T17:45:56;38.93;;;17.83;;
76459;SDS011;65299;46.084;18.762;2022-12-10T17:48:58;22.67;;;10.23;;
76459;SDS011;65299;46.084;18.762;2022-12-10T17:51:59;27.75;;;13.88;;
76459;SDS011;65299;46.084;18.762;2022-12-10T17:55:00;30.70;;;15.20;;
76459;SDS011;65299;46.084;18.762;2022-12-10T17:58:00;26.33;;;12.30;;
76459;SDS011;65299;46.084;18.762;2022-12-10T18:01:01;31.58;;;14.65;;
76459;SDS011;65299;46.084;18.762;2022-12-10T18:04:01;32.57;;;15.80;;
76459;SDS011;65299;46.084;18.762;2022-12-10T18:07:02;30.70;;;14.27;;
76459;SDS011;65299;46.084;18.762;2022-12-10T18:10:03;28.75;;;14.45;;
76459;SDS011;65299;46.084;18.762;2022-12-10T18:13:06;22.07;;;9.60;;
76459;SDS011;65299;46.084;18.762;2022-12-10T18:16:11;33.88;;;15.82;;
76459;SDS011;65299;46.084;18.762;2022-12-10T18:19:13;38.17;;;15.88;;
76459;SDS011;65299;46.084;18.762;2022-12-10T18:22:14;35.50;;;15.17;;
76459;SDS011;65299;46.084;18.762;2022-12-10T18:25:16;22.73;;;9.85;;
76459;SDS011;65299;46.084;18.762;2022-12-10T18:31:29;32.83;;;14.33;;
76459;SDS011;65299;46.084;18.762;2022-12-10T18:34:32;21.90;;;10.80;;
76459;SDS011;65299;46.084;18.762;2022-12-10T18:37:33;23.80;;;10.90;;
76459;SDS011;65299;46.084;18.762;2022-12-10T18:40:33;23.70;;;11.20;;
76459;SDS011;65299;46.084;18.762;2022-12-10T18:43:33;21.90;;;10.43;;
76459;SDS011;65299;46.084;18.762;2022-12-10T18:46:35;27.83;;;12.90;;
76459;SDS011;65299;46.084;18.762;2022-12-10T18:49:37;31.70;;;13.95;;
76459;SDS011;65299;46.084;18.762;2022-12-10T18:52:38;26.40;;;11.65;;
76459;SDS011;65299;46.084;18.762;2022-12-10T18:55:38;18.90;;;9.53;;
76459;SDS011;65299;46.084;18.762;2022-12-10T18:58:38;31.07;;;14.00;;
76459;SDS011;65299;46.084;18.762;2022-12-10T19:01:39;33.30;;;15.30;;
76459;SDS011;65299;46.084;18.762;2022-12-10T19:04:40;36.63;;;15.80;;
76459;SDS011;65299;46.084;18.762;2022-12-10T19:07:41;33.47;;;13.68;;
76459;SDS011;65299;46.084;18.762;2022-12-10T19:10:42;30.40;;;13.23;;
76459;SDS011;65299;46.084;18.762;2022-12-10T19:13:43;22.40;;;11.43;;
76459;SDS011;65299;46.084;18.762;2022-12-10T19:16:45;25.63;;;11.95;;
76459;SDS011;65299;46.084;18.762;2022-12-10T19:19:47;21.30;;;10.82;;
76459;SDS011;65299;46.084;18.762;2022-12-10T19:22:48;17.70;;;9.30;;
76459;SDS011;65299;46.084;18.762;2022-12-10T19:25:48;24.05;;;9.32;;
76459;SDS011;65299;46.084;18.762;2022-12-10T19:28:49;15.70;;;7.93;;
76459;SDS011;65299;46.084;18.762;2022-12-10T19:31:49;21.90;;;10.00;;
76459;SDS011;65299;46.084;18.762;2022-12-10T19:34:50;28.95;;;13.15;;
76459;SDS011;65299;46.084;18.762;2022-12-10T19:37:51;30.47;;;13.50;;
76459;SDS011;65299;46.084;18.762;2022-12-10T19:40:51;20.85;;;9.23;;